| time (UTC) | temp F | wind direction | speed knots | gust knots | rain 1hr in | rain 24hr in | rain mn in | humidity % | barometer mb |
| 20260508104731 | 54 | 352 | 6.1 | 11.3 | 0.00 | 0.00 | 0.00 | 23 | 1026.7 |
| 20260508100730 | 54 | 315 | 9.6 | 14.8 | 0.00 | 0.00 | 0.00 | 26 | 1026.6 |
| 20260508094730 | 53 | 314 | 10.4 | 14.8 | 0.00 | 0.00 | 0.00 | 24 | 1026.5 |
| 20260508092730 | 53 | 351 | 8.7 | 13.9 | 0.00 | 0.00 | 0.00 | 25 | 1026.5 |
| 20260508090730 | 52 | 337 | 8.7 | 17.4 | 0.00 | 0.00 | 0.00 | 32 | 1026.5 |
| 20260508084731 | 52 | 308 | 7.8 | 15.6 | 0.00 | 0.00 | 0.00 | 32 | 1026.7 |
| 20260508082730 | 51 | 296 | 7.8 | 12.2 | 0.00 | 0.00 | 0.00 | 34 | 1026.7 |
| 20260508080731 | 50 | 332 | 6.1 | 10.4 | 0.00 | 0.00 | 0.00 | 36 | 1026.6 |
| 20260508074730 | 51 | 274 | 7.0 | 10.4 | 0.00 | 0.00 | 0.00 | 39 | 1026.4 |
| 20260508070731 | 49 | 325 | 4.3 | 8.7 | 0.00 | 0.00 | 0.00 | 41 | 1026.2 |
| 20260508064730 | 48 | 302 | 5.2 | 8.7 | 0.00 | 0.00 | 0.00 | 41 | 1026.0 |
| 20260508062730 | 47 | 315 | 3.5 | 7.0 | 0.00 | 0.00 | 0.00 | 44 | 1025.9 |
| 20260508060730 | 46 | 335 | 3.5 | 6.1 | 0.00 | 0.00 | 0.00 | 45 | 1025.7 |
| 20260508054730 | 44 | 304 | 4.3 | 7.8 | 0.00 | 0.00 | 0.00 | 51 | 1025.7 |
| 20260508052731 | 43 | 303 | 5.2 | 7.8 | 0.00 | 0.00 | 0.00 | 52 | 1025.5 |
| 20260508050730 | 42 | 302 | 4.3 | 6.1 | 0.00 | 0.00 | 0.00 | 55 | 1025.3 |
| 20260508044731 | 41 | 326 | 3.5 | 5.2 | 0.00 | 0.00 | 0.00 | 60 | 1025.1 |
| 20260508042730 | 38 | 258 | 0.9 | 2.6 | 0.00 | 0.00 | 0.00 | 68 | 1025.0 |
| 20260508040730 | 38 | 239 | 0.9 | 1.7 | 0.00 | 0.00 | 0.00 | 70 | 1024.9 |
| 20260508034730 | 33 | 131 | 1.7 | 1.7 | 0.00 | 0.00 | 0.00 | 83 | 1024.9 |
| 20260508032730 | 30 | 109 | 0.9 | 0.9 | 0.00 | 0.00 | 0.00 | 84 | 1024.8 |
| 20260508030730 | 30 | 200 | 0.9 | 1.7 | 0.00 | 0.00 | 0.00 | 83 | 1024.5 |
| 20260508024729 | 28 | 123 | 0.9 | 1.7 | 0.00 | 0.00 | 0.00 | 87 | 1024.4 |
| 20260508022729 | 29 | 146 | 0.9 | 1.7 | 0.00 | 0.00 | 0.00 | 86 | 1024.1 |
| 20260508020729 | 28 | 143 | 0.9 | 1.7 | 0.00 | 0.00 | 0.00 | 87 | 1024.0 |
| 20260508014729 | 29 | 186 | 0.9 | 0.9 | 0.00 | 0.00 | 0.00 | 84 | 1023.8 |
| 20260508012729 | 29 | 136 | 0.9 | 0.9 | 0.00 | 0.00 | 0.00 | 86 | 1023.5 |
| 20260508010729 | 29 | 0.0 | 0.9 | 0.00 | 0.00 | 0.00 | 82 | 1023.4 | |
| 20260508004729 | 30 | 139 | 0.9 | 0.9 | 0.00 | 0.00 | 0.00 | 81 | 1023.1 |
| 20260508002729 | 30 | 0.0 | 1.7 | 0.00 | 0.00 | 0.00 | 79 | 1022.9 | |
| 20260508000730 | 31 | 0.0 | 0.9 | 0.00 | 0.00 | 0.00 | 77 | 1022.7 | |
| 20260507234730 | 31 | 341 | 0.9 | 0.9 | 0.00 | 0.00 | 0.00 | 76 | 1022.6 |
| 20260507232729 | 31 | 84 | 0.9 | 1.7 | 0.00 | 0.00 | 0.00 | 74 | 1022.3 |
| 20260507230729 | 33 | 43 | 0.9 | 2.6 | 0.00 | 0.00 | 0.00 | 67 | 1022.1 |
| 20260507224728 | 33 | 358 | 1.7 | 2.6 | 0.00 | 0.00 | 0.00 | 70 | 1021.9 |
| 20260507222729 | 34 | 340 | 0.9 | 1.7 | 0.00 | 0.00 | 0.00 | 64 | 1021.6 |
| 20260507220728 | 37 | 331 | 1.7 | 3.5 | 0.00 | 0.00 | 0.00 | 57 | 1021.4 |
| 20260507214729 | 40 | 317 | 3.5 | 5.2 | 0.00 | 0.00 | 0.00 | 50 | 1021.1 |
| 20260507212728 | 41 | 320 | 4.3 | 7.0 | 0.00 | 0.00 | 0.00 | 48 | 1020.7 |
| 20260507210728 | 41 | 321 | 4.3 | 7.8 | 0.00 | 0.00 | 0.00 | 46 | 1020.4 |
| 20260507204729 | 42 | 310 | 3.5 | 5.2 | 0.00 | 0.00 | 0.00 | 45 | 1020.1 |
| 20260507202728 | 43 | 304 | 3.5 | 7.0 | 0.00 | 0.00 | 0.00 | 43 | 1019.8 |
| 20260507200729 | 43 | 309 | 3.5 | 6.1 | 0.00 | 0.00 | 0.00 | 44 | 1019.4 |
| 20260507194728 | 43 | 319 | 4.3 | 7.8 | 0.00 | 0.00 | 0.00 | 43 | 1019.1 |
| 20260507192728 | 44 | 305 | 4.3 | 6.1 | 0.00 | 0.00 | 0.00 | 46 | 1018.8 |
| 20260507190728 | 45 | 300 | 4.3 | 7.8 | 0.00 | 0.00 | 0.00 | 45 | 1018.6 |
| 20260507184728 | 46 | 297 | 4.3 | 6.1 | 0.00 | 0.00 | 0.00 | 43 | 1018.3 |
| 20260507182727 | 47 | 309 | 6.1 | 10.4 | 0.00 | 0.00 | 0.00 | 41 | 1018.1 |
| 20260507180727 | 48 | 302 | 9.6 | 14.8 | 0.00 | 0.00 | 0.00 | 39 | 1017.8 |
| 20260507174728 | 49 | 323 | 8.7 | 14.8 | 0.00 | 0.00 | 0.00 | 37 | 1017.6 |
| 20260507172727 | 49 | 301 | 8.7 | 13.0 | 0.00 | 0.00 | 0.00 | 34 | 1017.4 |
| 20260507170727 | 50 | 280 | 9.6 | 14.8 | 0.00 | 0.00 | 0.00 | 33 | 1017.2 |
| 20260507164728 | 50 | 284 | 9.6 | 14.8 | 0.00 | 0.00 | 0.00 | 31 | 1017.1 |
| 20260507162728 | 51 | 285 | 12.2 | 17.4 | 0.00 | 0.00 | 0.00 | 32 | 1016.9 |
| 20260507160727 | 51 | 288 | 12.2 | 18.2 | 0.00 | 0.00 | 0.00 | 29 | 1016.8 |
| 20260507154727 | 52 | 293 | 10.4 | 18.2 | 0.00 | 0.00 | 0.00 | 31 | 1016.5 |
| 20260507152726 | 52 | 294 | 10.4 | 17.4 | 0.00 | 0.00 | 0.00 | 27 | 1016.5 |
| 20260507150729 | 53 | 284 | 11.3 | 18.2 | 0.00 | 0.00 | 0.00 | 27 | 1016.4 |
| 20260507144728 | 52 | 289 | 13.0 | 18.2 | 0.00 | 0.00 | 0.00 | 27 | 1016.3 |
| 20260507142728 | 55 | 296 | 11.3 | 18.2 | 0.00 | 0.00 | 0.00 | 24 | 1016.0 |
| 20260507140727 | 54 | 288 | 10.4 | 15.6 | 0.00 | 0.00 | 0.00 | 24 | 1015.9 |
| 20260507134728 | 55 | 315 | 6.1 | 12.2 | 0.00 | 0.00 | 0.00 | 24 | 1015.9 |
| 20260507132726 | 55 | 300 | 7.0 | 10.4 | 0.00 | 0.00 | 0.00 | 24 | 1015.9 |
| 20260507124726 | 54 | 284 | 7.8 | 13.9 | 0.00 | 0.00 | 0.00 | 20 | 1015.9 |
| 20260507122726 | 53 | 267 | 6.1 | 13.9 | 0.00 | 0.00 | 0.00 | 20 | 1015.9 |
| 20260507120727 | 53 | 252 | 6.1 | 15.6 | 0.00 | 0.00 | 0.00 | 20 | 1015.8 |
| 20260507114727 | 53 | 242 | 5.2 | 10.4 | 0.00 | 0.00 | 0.00 | 20 | 1015.9 |
| 20260507112725 | 52 | 298 | 3.5 | 7.8 | 0.00 | 0.00 | 0.00 | 20 | 1016.0 |
| 20260507110726 | 53 | 309 | 7.8 | 11.3 | 0.00 | 0.00 | 0.00 | 22 | 1016.0 |